createdAt,value
2023-05-09T00:02:21.344Z,101898.16
2023-05-09T00:04:48.774Z,101896.06
2023-05-09T00:07:44.021Z,101887.75
2023-05-09T00:10:22.675Z,101884.56
2023-05-09T00:12:54.301Z,101881.56
2023-05-09T00:15:53.138Z,101881.94
2023-05-09T00:18:21.410Z,101888.94
2023-05-09T00:20:53.687Z,101880.69
2023-05-09T00:23:22.153Z,101879.03
2023-05-09T00:25:49.440Z,101881.56
2023-05-09T00:28:17.426Z,101877.50
2023-05-09T00:30:52.538Z,101877.88
2023-05-09T00:33:21.554Z,101883.13
2023-05-09T00:35:51.588Z,101880.16
2023-05-09T00:38:22.536Z,101880.16
2023-05-09T00:40:56.527Z,101874.72
2023-05-09T00:43:40.809Z,101871.44
2023-05-09T00:46:18.498Z,101871.69
2023-05-09T00:48:48.082Z,101868.72
2023-05-09T00:51:38.348Z,101858.75
2023-05-09T00:54:14.939Z,101858.84
2023-05-09T00:56:45.086Z,101852.53
2023-05-09T00:59:14.486Z,101856.56
2023-05-09T01:01:46.134Z,101863.56
2023-05-09T01:04:17.596Z,101856.72
2023-05-09T01:06:57.659Z,101855.34
2023-05-09T01:09:33.617Z,101849.06
2023-05-09T01:12:09.922Z,101847.50
2023-05-09T01:18:11.266Z,101828.06
2023-05-09T01:21:11.812Z,101826.03
2023-05-09T01:23:49.830Z,101823.34
2023-05-09T01:26:43.972Z,101826.00
2023-05-09T01:29:36.746Z,101821.34
2023-05-09T01:32:07.813Z,101807.38
2023-05-09T01:34:55.731Z,101810.09
2023-05-09T01:37:30.797Z,101807.75
2023-05-09T01:40:16.240Z,101806.19
2023-05-09T01:42:51.371Z,101810.78
2023-05-09T01:45:24.214Z,101807.28
2023-05-09T01:48:01.148Z,101809.84
2023-05-09T01:50:33.110Z,101800.00
2023-05-09T01:53:05.159Z,101797.75
2023-05-09T01:55:47.203Z,101796.56
2023-05-09T01:58:16.249Z,101795.63
2023-05-09T02:00:44.620Z,101796.16
2023-05-09T02:03:13.385Z,101790.50
2023-05-09T02:05:49.199Z,101795.72
2023-05-09T02:08:21.195Z,101792.13
2023-05-09T02:10:52.861Z,101782.81
2023-05-09T02:13:27.181Z,101779.72
2023-05-09T02:15:59.622Z,101782.44
2023-05-09T02:18:44.882Z,101780.03
2023-05-09T02:21:16.011Z,101784.25
2023-05-09T02:23:43.453Z,101767.75
2023-05-09T02:26:12.613Z,101773.53
2023-05-09T02:28:44.269Z,101773.00
2023-05-09T02:31:34.223Z,101762.66
2023-05-09T02:34:06.057Z,101763.50
2023-05-09T02:36:36.226Z,101764.84
2023-05-09T02:41:49.857Z,101763.03
2023-05-09T02:44:21.984Z,101765.44
2023-05-09T02:46:48.890Z,101764.81
2023-05-09T02:49:31.504Z,101772.25
2023-05-09T02:52:12.024Z,101762.31
2023-05-09T02:54:45.900Z,101757.22
2023-05-09T02:57:12.847Z,101758.84
2023-05-09T02:59:43.001Z,101753.56
2023-05-09T03:02:12.787Z,101758.63
2023-05-09T03:04:40.824Z,101743.47
2023-05-09T03:07:16.527Z,101751.47
2023-05-09T03:09:44.958Z,101746.19
2023-05-09T03:12:13.273Z,101736.19
2023-05-09T03:15:08.051Z,101739.22
2023-05-09T03:17:39.466Z,101731.22
2023-05-09T03:20:14.219Z,101727.09
2023-05-09T03:25:33.158Z,101727.03
2023-05-09T03:28:03.292Z,101716.50
2023-05-09T03:30:32.675Z,101722.94
2023-05-09T03:33:21.119Z,101721.22
2023-05-09T03:35:47.858Z,101712.16
2023-05-09T03:38:14.784Z,101713.28
2023-05-09T03:40:44.853Z,101705.16
2023-05-09T03:43:33.149Z,101704.78
2023-05-09T03:46:01.547Z,101693.94
2023-05-09T03:48:31.378Z,101686.16
2023-05-09T03:53:56.373Z,101682.44
2023-05-09T03:56:23.652Z,101681.56
2023-05-09T03:58:50.921Z,101678.56
2023-05-09T04:01:18.624Z,101674.13
2023-05-09T04:03:48.846Z,101664.81
2023-05-09T04:06:16.248Z,101668.25
2023-05-09T04:08:47.399Z,101664.28
2023-05-09T04:11:16.991Z,101660.19
2023-05-09T04:13:43.759Z,101673.44
2023-05-09T04:16:15.401Z,101665.84
2023-05-09T04:18:44.933Z,101672.66
2023-05-09T04:21:16.298Z,101658.06
2023-05-09T04:24:03.427Z,101666.06
2023-05-09T04:26:38.241Z,101664.53
2023-05-09T04:29:06.443Z,101672.28
2023-05-09T04:31:36.773Z,101667.47
2023-05-09T04:34:28.405Z,101668.31
2023-05-09T04:37:02.291Z,101666.78
2023-05-09T04:43:03.607Z,101665.19
2023-05-09T04:45:55.517Z,101662.47
2023-05-09T04:48:28.523Z,101650.75
2023-05-09T04:50:59.817Z,101642.94
2023-05-09T04:53:30.558Z,101654.66
2023-05-09T04:55:58.402Z,101649.38
2023-05-09T04:58:32.522Z,101636.25
2023-05-09T05:01:05.726Z,101636.56
2023-05-09T05:42:46.903Z,101595.25
2023-05-09T05:45:13.966Z,101593.72
2023-05-09T05:53:15.544Z,101585.88
2023-05-09T05:55:46.190Z,101576.38
2023-05-09T06:05:30.101Z,101573.41
2023-05-09T06:07:56.560Z,101569.50
2023-05-09T06:10:27.581Z,101578.50
2023-05-09T06:13:00.448Z,101570.34
2023-05-09T06:15:31.257Z,101568.50
2023-05-09T06:18:02.889Z,101563.06
2023-05-09T06:20:38.337Z,101561.34
2023-05-09T06:23:17.423Z,101555.63
2023-05-09T06:25:45.671Z,101552.56
2023-05-09T06:28:15.996Z,101549.00
2023-05-09T06:30:47.895Z,101551.91
2023-05-09T06:33:17.463Z,101555.28
2023-05-09T06:36:03.768Z,101546.97
2023-05-09T06:42:52.890Z,101529.97
2023-05-09T06:45:19.870Z,101524.91
2023-05-09T06:47:51.553Z,101524.75
2023-05-09T06:50:25.247Z,101522.88
2023-05-09T06:52:53.857Z,101518.63
2023-05-09T06:55:23.975Z,101515.91
2023-05-09T06:57:53.247Z,101516.63
2023-05-09T07:00:25.673Z,101518.16
2023-05-09T07:02:55.959Z,101511.56
2023-05-09T07:05:26.931Z,101515.50
2023-05-09T07:07:58.588Z,101510.91
2023-05-09T07:10:28.688Z,101508.69
2023-05-09T07:12:56.796Z,101508.50
2023-05-09T07:15:37.252Z,101509.34
2023-05-09T07:18:15.198Z,101503.75
2023-05-09T07:20:47.521Z,101507.00
2023-05-09T07:23:20.304Z,101498.69
2023-05-09T07:25:54.187Z,101503.25
2023-05-09T07:28:26.346Z,101495.63
2023-05-09T07:30:57.414Z,101497.84
2023-05-09T07:33:35.210Z,101488.16
2023-05-09T07:36:05.486Z,101494.75
2023-05-09T07:38:32.269Z,101495.25
2023-05-09T07:41:02.777Z,101494.41
2023-05-09T07:43:33.255Z,101485.25
2023-05-09T07:46:06.051Z,101483.88
2023-05-09T07:48:36.357Z,101482.53
2023-05-09T07:56:27.354Z,101479.38
2023-05-09T07:59:03.551Z,101476.66
2023-05-09T08:01:30.179Z,101470.00
2023-05-09T08:09:30.128Z,101466.59
2023-05-09T08:12:04.103Z,101457.25
2023-05-09T08:20:01.795Z,101445.53
2023-05-09T08:22:29.885Z,101444.16
2023-05-09T08:24:56.641Z,101441.97
2023-05-09T08:27:24.543Z,101435.84
2023-05-09T08:29:51.771Z,101431.47
2023-05-09T08:32:38.781Z,101423.47
2023-05-09T08:35:29.188Z,101428.06
2023-05-09T08:38:22.013Z,101425.19
2023-05-09T08:40:48.875Z,101417.69
2023-05-09T08:43:49.805Z,101419.41
2023-05-09T08:46:39.814Z,101418.41
2023-05-09T08:49:08.886Z,101416.69
2023-05-09T08:51:35.973Z,101413.59
2023-05-09T08:54:03.998Z,101417.84
2023-05-09T08:56:31.753Z,101421.56
2023-05-09T08:58:59.089Z,101418.34
2023-05-09T09:01:28.180Z,101408.47
2023-05-09T09:04:00.023Z,101396.41
2023-05-09T09:06:34.819Z,101399.66
2023-05-09T09:09:02.729Z,101393.53
2023-05-09T09:11:31.466Z,101388.44
2023-05-09T09:14:01.250Z,101403.69
2023-05-09T09:16:33.147Z,101394.69
2023-05-09T09:19:10.593Z,101392.50
2023-05-09T09:21:39.774Z,101393.69
2023-05-09T09:24:08.655Z,101393.53
2023-05-09T09:26:48.958Z,101397.25
2023-05-09T09:29:24.050Z,101385.00
2023-05-09T09:34:39.108Z,101373.94
2023-05-09T09:37:07.568Z,101376.00
2023-05-09T09:53:00.482Z,101369.91
2023-05-09T10:12:28.372Z,101357.47
2023-05-09T10:15:04.344Z,101345.25
2023-05-09T10:17:39.693Z,101357.13
2023-05-09T10:31:21.621Z,101346.25
2023-05-09T10:33:52.292Z,101350.38
2023-05-09T10:36:20.876Z,101341.88
2023-05-09T10:38:51.409Z,101334.72
2023-05-09T10:41:20.967Z,101334.53
2023-05-09T10:43:48.565Z,101330.13
2023-05-09T10:46:20.344Z,101326.38
2023-05-09T10:48:49.748Z,101329.78
2023-05-09T10:51:17.624Z,101323.50
2023-05-09T10:53:54.888Z,101318.72
2023-05-09T10:56:53.645Z,101312.28
2023-05-09T10:59:58.501Z,101311.78
2023-05-09T11:02:32.630Z,101311.25
2023-05-09T11:05:40.420Z,101303.63
2023-05-09T11:08:29.521Z,101298.88
2023-05-09T11:11:22.344Z,101297.66
2023-05-09T11:13:57.290Z,101296.16
2023-05-09T11:16:57.708Z,101289.69
2023-05-09T11:19:42.971Z,101290.22
2023-05-09T11:22:33.055Z,101288.50
2023-05-09T11:25:14.672Z,101281.38
2023-05-09T11:28:01.919Z,101278.31
2023-05-09T11:30:51.012Z,101278.63
2023-05-09T11:33:27.628Z,101272.19
2023-05-09T11:36:17.399Z,101270.16
2023-05-09T11:38:45.236Z,101264.56
2023-05-09T11:41:18.282Z,101262.31
2023-05-09T11:43:45.416Z,101263.03
2023-05-09T11:46:22.021Z,101261.47
2023-05-09T11:48:54.552Z,101250.47
2023-05-09T11:51:22.210Z,101260.63
2023-05-09T11:53:59.529Z,101249.44
2023-05-09T11:56:30.587Z,101255.91
2023-05-09T11:59:00.511Z,101251.13
2023-05-09T12:01:33.368Z,101245.34
2023-05-09T12:04:08.403Z,101244.00
2023-05-09T12:06:38.584Z,101246.88
2023-05-09T12:09:38.097Z,101249.09
2023-05-09T12:12:15.881Z,101243.50
2023-05-09T12:15:10.010Z,101242.84
2023-05-09T12:18:10.270Z,101237.56
2023-05-09T12:28:43.865Z,101226.19
2023-05-09T12:31:10.550Z,101225.47
2023-05-09T12:34:23.981Z,101222.25
2023-05-09T12:36:58.440Z,101217.66
2023-05-09T12:39:24.908Z,101216.50
2023-05-09T12:42:01.068Z,101214.28
2023-05-09T12:44:30.038Z,101209.38
2023-05-09T12:47:08.883Z,101208.69
2023-05-09T12:49:44.082Z,101202.88
2023-05-09T12:52:20.909Z,101201.34
2023-05-09T12:54:52.248Z,101192.19
2023-05-09T12:57:47.662Z,101189.47
2023-05-09T13:00:18.008Z,101190.50
2023-05-09T13:02:50.977Z,101192.19
2023-05-09T13:05:26.410Z,101189.09
2023-05-09T13:07:59.391Z,101185.16
2023-05-09T13:10:32.070Z,101183.81
2023-05-09T13:12:58.842Z,101173.81
2023-05-09T13:15:30.622Z,101177.03
2023-05-09T13:18:00.737Z,101173.47
2023-05-09T13:20:37.360Z,101173.31
2023-05-09T13:23:12.685Z,101165.00
2023-05-09T13:25:44.324Z,101162.06
2023-05-09T13:28:15.341Z,101170.56
2023-05-09T13:30:42.424Z,101163.94
2023-05-09T13:33:23.936Z,101163.94
2023-05-09T13:35:51.421Z,101157.13
2023-05-09T13:48:42.437Z,101139.91
2023-05-09T13:51:09.967Z,101144.81
2023-05-09T13:53:40.362Z,101146.03
2023-05-09T13:56:15.476Z,101137.06
2023-05-09T13:58:44.821Z,101143.16
2023-05-09T14:01:12.684Z,101132.66
2023-05-09T14:03:42.700Z,101139.28
2023-05-09T14:06:18.560Z,101124.88
2023-05-09T14:08:45.379Z,101128.59
2023-05-09T14:11:14.745Z,101133.50
2023-05-09T14:13:42.509Z,101127.38
2023-05-09T14:16:09.520Z,101135.84
2023-05-09T14:18:39.275Z,101131.06
2023-05-09T14:21:29.359Z,101120.19
2023-05-09T14:23:56.817Z,101112.06
2023-05-09T14:26:25.472Z,101118.31
2023-05-09T14:28:53.898Z,101112.69
2023-05-09T14:31:21.689Z,101109.06
2023-05-09T14:33:55.959Z,101106.84
2023-05-09T14:36:22.795Z,101101.56
2023-05-09T14:38:50.769Z,101103.16
2023-05-09T14:41:20.272Z,101101.28
2023-05-09T14:43:52.777Z,101096.84
2023-05-09T14:58:00.251Z,101084.28
2023-05-09T15:03:11.170Z,101082.25
2023-05-09T15:12:19.478Z,101067.47
2023-05-09T15:14:53.855Z,101064.06
2023-05-09T15:17:31.358Z,101065.78
2023-05-09T15:20:25.377Z,101065.09
2023-05-09T15:22:52.656Z,101057.78
2023-05-09T15:48:31.748Z,101056.28
2023-05-09T17:51:14.180Z,100978.81
2023-05-09T22:06:43.847Z,101004.03
2023-05-09T22:48:48.760Z,100985.56
